createdAt,value
2022-09-07T00:00:43.374Z,69.38
2022-09-07T00:03:46.013Z,68.06
2022-09-07T00:06:48.664Z,68.50
2022-09-07T00:09:52.600Z,69.30
2022-09-07T00:12:55.189Z,69.91
2022-09-07T00:15:58.219Z,69.83
2022-09-07T00:19:02.742Z,69.77
2022-09-07T00:22:05.284Z,70.02
2022-09-07T00:25:10.340Z,69.89
2022-09-07T00:28:12.863Z,69.98
2022-09-07T00:31:17.551Z,69.62
2022-09-07T00:34:20.163Z,69.76
2022-09-07T00:37:22.802Z,70.18
2022-09-07T00:40:26.836Z,70.53
2022-09-07T00:43:34.413Z,70.89
2022-09-07T00:46:37.030Z,70.69
2022-09-07T00:49:40.664Z,70.32
2022-09-07T00:52:44.352Z,69.66
2022-09-07T00:55:49.838Z,70.19
2022-09-07T00:58:52.930Z,71.49
2022-09-07T01:01:55.951Z,71.60
2022-09-07T01:05:07.563Z,71.54
2022-09-07T01:08:13.152Z,70.61
2022-09-07T01:11:18.483Z,69.65
2022-09-07T01:14:24.744Z,70.06
2022-09-07T01:17:33.249Z,70.08
2022-09-07T01:20:49.601Z,70.01
2022-09-07T01:24:28.591Z,70.26
2022-09-07T01:28:11.915Z,69.95
2022-09-07T01:31:20.888Z,69.55
2022-09-07T01:34:26.181Z,69.68
2022-09-07T01:37:34.029Z,69.14
2022-09-07T01:40:42.944Z,68.81
2022-09-07T01:43:51.733Z,68.70
2022-09-07T01:47:00.225Z,68.89
2022-09-07T01:50:07.545Z,68.68
2022-09-07T01:53:15.281Z,68.76
2022-09-07T01:56:20.503Z,68.81
2022-09-07T01:59:28.127Z,68.55
2022-09-07T02:02:32.334Z,68.70
2022-09-07T02:05:37.144Z,68.26
2022-09-07T02:08:43.541Z,68.43
2022-09-07T02:11:47.703Z,68.90
2022-09-07T02:14:54.301Z,68.51
2022-09-07T02:18:02.058Z,68.79
2022-09-07T02:21:05.860Z,69.07
2022-09-07T02:24:11.741Z,68.81
2022-09-07T02:27:17.826Z,69.15
2022-09-07T02:30:21.724Z,69.14
2022-09-07T02:33:24.497Z,69.18
2022-09-07T02:36:30.550Z,69.21
2022-09-07T02:39:33.642Z,69.29
2022-09-07T02:42:36.508Z,69.73
2022-09-07T02:45:48.029Z,69.64
2022-09-07T02:48:54.196Z,69.59
2022-09-07T02:52:01.644Z,68.44
2022-09-07T02:55:10.883Z,67.64
2022-09-07T02:58:22.834Z,67.13
2022-09-07T03:01:34.094Z,67.37
2022-09-07T03:04:43.933Z,67.13
2022-09-07T03:07:51.608Z,67.75
2022-09-07T03:10:54.426Z,67.64
2022-09-07T03:14:12.658Z,67.54
2022-09-07T03:17:17.020Z,67.34
2022-09-07T03:20:20.875Z,67.64
2022-09-07T03:23:23.492Z,67.20
2022-09-07T03:26:26.395Z,67.43
2022-09-07T03:29:29.142Z,67.42
2022-09-07T03:32:34.636Z,68.33
2022-09-07T03:35:37.269Z,67.79
2022-09-07T03:38:39.848Z,68.58
2022-09-07T03:41:42.406Z,69.67
2022-09-07T03:44:45.249Z,70.69
2022-09-07T03:47:49.166Z,71.21
2022-09-07T03:50:57.250Z,72.19
2022-09-07T03:54:00.604Z,72.99
2022-09-07T03:57:03.390Z,74.21
2022-09-07T04:00:06.860Z,74.41
2022-09-07T04:03:10.705Z,74.91
2022-09-07T04:06:14.066Z,74.78
2022-09-07T04:09:17.161Z,75.16
2022-09-07T04:12:20.317Z,74.35
2022-09-07T04:15:23.345Z,74.66
2022-09-07T04:18:27.960Z,74.65
2022-09-07T04:21:32.458Z,75.25
2022-09-07T04:24:35.553Z,75.26
2022-09-07T04:27:38.643Z,76.26
2022-09-07T04:30:41.287Z,76.96
2022-09-07T04:33:45.664Z,75.87
2022-09-07T04:36:48.191Z,75.24
2022-09-07T04:39:51.806Z,75.57
2022-09-07T04:42:54.390Z,75.58
2022-09-07T04:45:57.082Z,76.41
2022-09-07T04:49:02.972Z,77.25
2022-09-07T04:52:05.518Z,77.97
2022-09-07T04:55:08.886Z,78.52
2022-09-07T04:58:11.475Z,78.72
2022-09-07T05:01:15.725Z,79.17
2022-09-07T05:04:19.711Z,79.18
2022-09-07T05:07:22.229Z,79.53
2022-09-07T05:10:24.814Z,79.80
2022-09-07T05:13:27.320Z,80.09
2022-09-07T05:16:30.800Z,80.26
2022-09-07T05:19:34.843Z,80.18
2022-09-07T05:22:40.966Z,80.56
2022-09-07T05:25:44.670Z,80.07
2022-09-07T05:28:47.965Z,80.13
2022-09-07T05:31:50.502Z,80.08
2022-09-07T05:34:54.509Z,79.73
2022-09-07T05:37:57.047Z,79.33
2022-09-07T05:41:00.461Z,78.74
2022-09-07T05:47:26.464Z,77.17
2022-09-07T05:50:30.486Z,76.40
2022-09-07T05:53:35.492Z,76.45
2022-09-07T05:56:38.235Z,75.91
2022-09-07T05:59:40.858Z,75.17
2022-09-07T06:02:43.424Z,74.96
2022-09-07T06:05:47.484Z,74.82
2022-09-07T06:08:51.275Z,74.28
2022-09-07T06:11:53.975Z,73.58
2022-09-07T06:14:56.504Z,72.03
2022-09-07T06:17:59.004Z,69.49
2022-09-07T06:21:04.836Z,67.51
2022-09-07T06:24:08.056Z,66.03
2022-09-07T06:27:10.707Z,66.32
2022-09-07T06:30:13.929Z,67.94
2022-09-07T06:33:21.387Z,68.60
2022-09-07T06:36:28.190Z,67.92
2022-09-07T06:39:30.797Z,66.70
2022-09-07T06:42:33.444Z,66.60
2022-09-07T06:45:36.047Z,66.47
2022-09-07T06:48:42.675Z,65.70
2022-09-07T06:51:48.425Z,64.97
2022-09-07T06:58:00.808Z,63.44
2022-09-07T07:01:07.181Z,62.84
2022-09-07T07:04:09.848Z,62.58
2022-09-07T07:07:14.614Z,63.38
2022-09-07T07:10:22.167Z,63.35
2022-09-07T07:13:27.432Z,63.27
2022-09-07T07:16:29.941Z,62.70
2022-09-07T07:19:32.624Z,62.99
2022-09-07T07:22:46.731Z,63.09
2022-09-07T07:25:49.668Z,62.47
2022-09-07T07:29:00.812Z,61.09
2022-09-07T07:32:05.201Z,61.57
2022-09-07T07:35:08.754Z,60.65
2022-09-07T07:48:20.280Z,56.49
2022-09-07T07:51:22.954Z,56.57
2022-09-07T07:54:26.812Z,55.56
2022-09-07T07:57:30.617Z,55.49
2022-09-07T08:00:52.880Z,55.12
2022-09-07T08:03:55.998Z,54.15
2022-09-07T08:06:58.587Z,54.00
2022-09-07T08:10:02.366Z,53.69
2022-09-07T08:13:05.116Z,53.49
2022-09-07T08:16:08.602Z,52.96
2022-09-07T08:19:11.182Z,52.64
2022-09-07T08:22:13.887Z,52.75
2022-09-07T08:25:18.496Z,51.90
2022-09-07T08:28:21.721Z,51.89
2022-09-07T08:31:24.534Z,52.14
2022-09-07T08:34:27.090Z,51.22
2022-09-07T08:37:29.648Z,51.10
2022-09-07T08:40:37.036Z,50.68
2022-09-07T08:43:49.109Z,50.78
2022-09-07T08:46:55.931Z,50.81
2022-09-07T08:50:02.881Z,50.14
2022-09-07T08:53:08.408Z,49.96
2022-09-07T08:56:15.580Z,50.44
2022-09-07T08:59:21.536Z,50.04
2022-09-07T09:02:28.206Z,51.45
2022-09-07T09:05:38.663Z,50.31
2022-09-07T09:08:52.704Z,48.84
2022-09-07T09:12:07.511Z,48.53
2022-09-07T09:15:17.573Z,48.00
2022-09-07T09:18:31.392Z,48.82
2022-09-07T09:21:35.644Z,47.71
2022-09-07T09:24:39.787Z,47.15
2022-09-07T09:27:43.822Z,46.46
2022-09-07T09:30:47.728Z,45.70
2022-09-07T09:34:11.706Z,44.91
2022-09-07T09:37:14.350Z,46.10
2022-09-07T09:40:26.082Z,47.00
2022-09-07T09:43:35.524Z,47.88
2022-09-07T09:46:38.841Z,47.29
2022-09-07T09:49:41.658Z,46.68
2022-09-07T09:52:51.441Z,46.25
2022-09-07T09:55:55.102Z,46.83
2022-09-07T10:05:58.318Z,46.66
2022-09-07T10:09:01.821Z,46.70
2022-09-07T10:12:06.266Z,46.06
2022-09-07T10:15:27.140Z,46.22
2022-09-07T10:18:33.672Z,45.57
2022-09-07T10:21:36.201Z,45.81
2022-09-07T10:24:41.396Z,46.24
2022-09-07T10:27:46.683Z,45.57
2022-09-07T10:31:11.009Z,45.35
2022-09-07T10:34:27.217Z,45.43
2022-09-07T10:37:37.553Z,44.68
2022-09-07T10:40:43.420Z,43.81
2022-09-07T10:43:47.291Z,42.81
2022-09-07T10:46:57.681Z,42.75
2022-09-07T10:53:41.897Z,44.49
2022-09-07T10:56:52.950Z,45.42
2022-09-07T11:00:09.278Z,45.87
2022-09-07T11:03:32.944Z,45.98
2022-09-07T11:06:40.048Z,46.57
2022-09-07T11:09:50.184Z,46.82
2022-09-07T11:12:55.217Z,46.70
2022-09-07T11:16:00.368Z,47.43
2022-09-07T11:22:34.341Z,47.02
2022-09-07T11:25:42.086Z,45.49
2022-09-07T11:28:47.160Z,44.91
2022-09-07T11:31:52.279Z,43.03
2022-09-07T11:34:59.924Z,42.66
2022-09-07T11:38:06.484Z,42.50
2022-09-07T11:41:19.835Z,42.51
2022-09-07T11:44:25.208Z,42.21
2022-09-07T11:47:30.988Z,41.04
2022-09-07T11:50:38.421Z,41.38
2022-09-07T11:53:45.311Z,40.04
2022-09-07T11:56:51.866Z,39.21
2022-09-07T12:00:02.587Z,38.11
2022-09-07T12:03:23.627Z,37.48
2022-09-07T12:06:43.513Z,37.91
2022-09-07T12:09:56.572Z,37.83
2022-09-07T12:13:14.345Z,36.24
2022-09-07T12:16:22.408Z,35.80
2022-09-07T12:19:26.537Z,33.96
2022-09-07T12:22:30.423Z,32.98
2022-09-07T12:25:33.756Z,31.60
2022-09-07T12:29:05.561Z,31.67
2022-09-07T12:35:38.770Z,32.91
2022-09-07T12:39:24.752Z,34.78
2022-09-07T12:42:34.323Z,33.57
2022-09-07T12:45:51.670Z,31.99
2022-09-07T12:48:59.728Z,32.20
2022-09-07T12:52:16.016Z,27.92
2022-09-07T12:59:44.329Z,18.11
2022-09-07T13:03:04.315Z,23.15
2022-09-07T13:06:17.264Z,26.31
2022-09-07T13:09:31.488Z,25.93
2022-09-07T13:12:53.684Z,27.63
2022-09-07T13:16:30.051Z,27.93
2022-09-07T13:20:08.962Z,27.75
2022-09-07T13:23:29.531Z,20.08
2022-09-07T13:26:54.889Z,20.06
2022-09-07T13:29:59.858Z,20.25
2022-09-07T13:33:50.576Z,18.33
2022-09-07T13:36:54.451Z,14.60
2022-09-07T13:39:58.430Z,13.80
2022-09-07T13:43:01.908Z,12.61
2022-09-07T13:46:09.290Z,13.96
2022-09-07T13:49:20.264Z,13.46
2022-09-07T13:52:32.160Z,18.46
2022-09-07T13:55:38.719Z,21.49
2022-09-07T13:58:42.588Z,23.41
2022-09-07T14:01:47.159Z,22.68
2022-09-07T14:04:51.696Z,16.05
2022-09-07T14:07:55.477Z,13.22
2022-09-07T14:10:58.001Z,15.99
2022-09-07T14:14:24.716Z,16.97
2022-09-07T14:17:29.007Z,20.23
2022-09-07T14:20:32.323Z,19.08
2022-09-07T14:23:38.840Z,16.67
2022-09-07T14:26:46.746Z,13.86
2022-09-07T14:29:49.506Z,12.78
2022-09-07T14:32:53.693Z,14.34
2022-09-07T14:35:57.209Z,14.49
2022-09-07T14:39:04.980Z,19.23
2022-09-07T14:42:08.007Z,25.35
2022-09-07T14:45:18.337Z,27.55
2022-09-07T14:48:31.508Z,29.31
2022-09-07T14:51:36.958Z,30.52
2022-09-07T14:54:40.975Z,30.18
2022-09-07T14:57:43.444Z,30.60
2022-09-07T15:00:46.558Z,28.35
2022-09-07T15:03:55.058Z,27.45
2022-09-07T15:07:04.557Z,23.84
2022-09-07T15:10:15.893Z,20.63
2022-09-07T15:13:24.923Z,22.17
2022-09-07T15:16:28.800Z,26.10
2022-09-07T15:19:35.101Z,24.51
2022-09-07T15:22:37.541Z,23.25
2022-09-07T15:25:46.531Z,21.78
2022-09-07T15:32:13.173Z,20.46
2022-09-07T15:35:16.007Z,22.51
2022-09-07T15:41:42.953Z,21.04
2022-09-07T15:44:45.488Z,26.45
2022-09-07T15:47:52.475Z,28.80
2022-09-07T15:51:02.567Z,29.89
2022-09-07T15:54:12.912Z,30.82
2022-09-07T16:00:40.259Z,32.84
2022-09-07T16:03:42.823Z,33.09
2022-09-07T16:06:48.141Z,29.70
2022-09-07T16:09:52.453Z,25.63
2022-09-07T16:13:10.475Z,25.05
2022-09-07T16:16:15.757Z,22.39
2022-09-07T16:19:21.522Z,20.46
2022-09-07T16:25:56.576Z,24.75
2022-09-07T16:29:01.528Z,29.08
2022-09-07T16:35:27.414Z,33.16
2022-09-07T16:38:47.298Z,34.51
2022-09-07T16:41:50.007Z,34.89
2022-09-07T16:44:53.922Z,35.41
2022-09-07T16:47:56.851Z,35.97
2022-09-07T16:51:02.346Z,37.18
2022-09-07T16:54:06.155Z,37.40
2022-09-07T16:57:08.814Z,38.32
2022-09-07T17:00:13.430Z,38.58
2022-09-07T17:03:15.921Z,39.14
2022-09-07T17:06:20.257Z,39.34
2022-09-07T17:09:26.576Z,40.15
2022-09-07T17:12:29.386Z,40.71
2022-09-07T17:15:34.819Z,40.90
2022-09-07T17:22:00.868Z,41.66
2022-09-07T17:25:03.431Z,41.83
2022-09-07T17:28:05.956Z,42.02
2022-09-07T17:31:11.690Z,42.42
2022-09-07T17:34:33.823Z,42.10
2022-09-07T17:37:36.313Z,42.34
2022-09-07T17:40:39.026Z,42.76
2022-09-07T17:43:45.239Z,43.10
2022-09-07T17:46:49.627Z,43.17
2022-09-07T17:49:52.148Z,42.98
2022-09-07T17:52:54.639Z,42.79
2022-09-07T17:55:57.179Z,42.80
2022-09-07T18:02:24.154Z,43.54
2022-09-07T18:05:26.722Z,43.80
2022-09-07T18:08:29.333Z,43.68
2022-09-07T18:11:49.087Z,44.84
2022-09-07T18:14:52.112Z,47.68
2022-09-07T18:17:57.084Z,49.36
2022-09-07T18:20:59.651Z,50.23
2022-09-07T18:24:04.801Z,49.33
2022-09-07T18:27:07.919Z,50.16
2022-09-07T18:30:11.257Z,52.11
2022-09-07T18:33:15.497Z,52.46
2022-09-07T18:36:18.127Z,54.28
2022-09-07T18:39:20.752Z,56.37
2022-09-07T18:42:23.337Z,55.87
2022-09-07T18:45:27.526Z,55.44
2022-09-07T18:48:32.061Z,55.43
2022-09-07T18:52:51.767Z,54.95
2022-09-07T18:54:57.023Z,54.33
2022-09-07T18:58:01.402Z,53.91
2022-09-07T19:01:05.068Z,54.26
2022-09-07T19:04:09.095Z,54.42
2022-09-07T19:07:12.104Z,54.29
2022-09-07T19:10:16.695Z,53.85
2022-09-07T19:13:19.253Z,53.10
2022-09-07T19:16:21.848Z,53.60
2022-09-07T19:19:26.643Z,52.38
2022-09-07T19:22:29.563Z,52.09
2022-09-07T19:25:32.101Z,52.74
2022-09-07T19:28:35.501Z,52.38
2022-09-07T19:31:38.278Z,52.36
2022-09-07T19:34:43.310Z,52.20
2022-09-07T19:37:45.868Z,52.60
2022-09-07T19:40:56.260Z,52.50
2022-09-07T19:43:59.012Z,52.59
2022-09-07T19:47:01.911Z,52.61
2022-09-07T19:50:06.249Z,52.36
2022-09-07T19:53:08.738Z,52.84
2022-09-07T19:56:13.744Z,53.90
2022-09-07T19:59:19.230Z,54.06
2022-09-07T20:02:21.685Z,55.30
2022-09-07T20:05:29.399Z,55.00
2022-09-07T20:08:31.912Z,55.48
2022-09-07T20:11:35.818Z,55.71
2022-09-07T20:14:38.322Z,56.03
2022-09-07T20:17:40.782Z,56.16
2022-09-07T20:20:44.763Z,55.80
2022-09-07T20:23:47.369Z,55.91
2022-09-07T20:26:50.163Z,56.58
2022-09-07T20:29:53.155Z,56.75
2022-09-07T20:32:55.720Z,56.85
2022-09-07T20:36:04.528Z,57.42
2022-09-07T20:39:07.175Z,57.61
2022-09-07T20:42:09.635Z,57.86
2022-09-07T20:45:12.251Z,58.02
2022-09-07T20:48:15.205Z,58.10
2022-09-07T20:51:21.143Z,58.19
2022-09-07T20:54:23.823Z,58.60
2022-09-07T20:57:26.530Z,58.59
2022-09-07T21:00:29.377Z,58.81
2022-09-07T21:03:32.152Z,58.65
2022-09-07T21:06:36.270Z,58.97
2022-09-07T21:09:38.839Z,59.33
2022-09-07T21:12:41.431Z,59.36
2022-09-07T21:15:45.388Z,59.51
2022-09-07T21:18:48.182Z,59.42
2022-09-07T21:21:52.007Z,58.92
2022-09-07T21:24:54.549Z,58.99
2022-09-07T21:27:57.012Z,59.14
2022-09-07T21:31:00.507Z,59.08
2022-09-07T21:34:03.624Z,58.66
2022-09-07T21:37:07.359Z,58.22
2022-09-07T21:40:10.243Z,57.99
2022-09-07T21:43:12.853Z,57.99
2022-09-07T21:46:17.433Z,58.12
2022-09-07T21:49:20.101Z,58.38
2022-09-07T21:52:24.018Z,58.27
2022-09-07T21:55:26.682Z,58.51
2022-09-07T21:58:30.138Z,58.74
2022-09-07T22:01:33.257Z,58.78
2022-09-07T22:04:35.760Z,58.63
2022-09-07T22:07:39.683Z,58.72
2022-09-07T22:10:42.829Z,59.31
2022-09-07T22:13:45.651Z,59.03
2022-09-07T22:16:48.214Z,59.33
2022-09-07T22:19:50.681Z,60.04
2022-09-07T22:22:54.663Z,60.29
2022-09-07T22:25:57.225Z,60.39
2022-09-07T22:29:00.177Z,61.06
2022-09-07T22:32:03.043Z,61.65
2022-09-07T22:35:06.467Z,61.92
2022-09-07T22:38:10.248Z,62.24
2022-09-07T22:41:13.989Z,63.03
2022-09-07T22:44:18.031Z,63.10
2022-09-07T22:47:20.881Z,62.81
2022-09-07T22:50:23.398Z,62.12
2022-09-07T22:53:27.645Z,62.14
2022-09-07T22:56:32.311Z,62.72
2022-09-07T22:59:35.076Z,62.94
2022-09-07T23:02:37.657Z,63.22
2022-09-07T23:05:40.247Z,63.72
2022-09-07T23:08:44.287Z,65.39
2022-09-07T23:11:47.732Z,65.87
2022-09-07T23:14:50.440Z,66.44
2022-09-07T23:17:52.935Z,67.26
2022-09-07T23:21:00.605Z,67.71
2022-09-07T23:24:05.090Z,68.03
2022-09-07T23:27:07.538Z,68.82
2022-09-07T23:30:11.617Z,69.33
2022-09-07T23:33:14.239Z,69.33
2022-09-07T23:36:17.269Z,70.08
2022-09-07T23:39:22.043Z,70.58
2022-09-07T23:42:24.570Z,71.66
2022-09-07T23:45:27.230Z,72.47
2022-09-07T23:48:29.969Z,72.43
2022-09-07T23:51:32.446Z,72.85
2022-09-07T23:54:36.398Z,73.20
2022-09-07T23:57:39.504Z,73.38
